Killian, South Carolina
Current Conditions -  °F | °C
As of 10:31 AM on Wednesday 26 Nov 2014 (Local Time) from KCUB Reporting Station
Overcast Overcast  
Wind Chill: 47°   Ceiling: 1100
Heat Index: 49°   Visibility: 10mi
Dew Point: 45°   Wind: 6mph
Humidity: 86%   Direction: NA
Pressure: 30.02"   Gusts: NA
Location:  34.1179°N, 81.0612°W
Report Text: KCUB 261531Z AUTO VRB05KT 10SM BKN011 OVC024 09/07 A3002 RMK AO2 RAE26 P0004 T00940072
Loading
Personal Weather Stations






























Interactive Weather Map New forecast layout! Learn more

10-Day Weather Forecast

Advertisements
Track Severe Weather on mobile